Search for airport 
image banner adimage banner ad
image banner ad

SIXE - Aeroclube de Eldorado do Sul Airport

Located in Eldorado Do Sul, Brazil

ICAO - SIXE, IATA -

Data provided by Airmate  

General information

Coordinates: S30°3'1" W51°26'37"
Elevation is 32 feet MSL.
Magnetic variation is -16° East
Rated:
View ratings: [VIEW]


View others Airports in Rio Grande do Sul

Operational data

Open for public use
Current time UTC:
Current local time:
Weather at : SBPA - Salgado Filho ( 27 km )
METAR: SBPA 032100Z 11006KT CAVOK 24/19 Q1024
TAF: TAF SBPA 031500Z 0318/0418 15007KT CAVOK TX27/0318Z TN12/0408Z BECMG 0400/0402 10001KT PROB40 0403/0410 2000 BR SCT002 BECMG 0413/0415 10007KT RMK PEU
View NOTAMs / SUP AIP / TFR affecting this airport [VIEW]
Communications frequencies: [VIEW]

Runways:

RWY identifierQFULength (ft)Width (ft)SurfaceLDA (ft)
11524998GRASS
29524998GRASS

Airport contact information

Address: Eldorado Do Sul Brazil

Other aviation service providers

Aviation club (not for profit)

Aeroclube De Eldorado Do Sul

Aeroclube De Eldorado Do Sul

Satellite view of SIXE